createdAt,value
2022-09-25T00:00:22.258Z,36.67
2022-09-25T00:04:44.167Z,38.17
2022-09-25T00:08:46.231Z,38.20
2022-09-25T00:12:48.312Z,38.40
2022-09-25T00:16:50.095Z,35.05
2022-09-25T00:21:01.011Z,35.58
2022-09-25T00:25:03.545Z,36.60
2022-09-25T00:29:06.709Z,36.53
2022-09-25T00:33:08.482Z,37.28
2022-09-25T00:37:10.649Z,39.05
2022-09-25T00:41:12.879Z,41.85
2022-09-25T00:45:21.676Z,35.85
2022-09-25T00:53:36.470Z,35.42
2022-09-25T00:57:40.718Z,40.25
2022-09-25T01:01:42.915Z,44.70
2022-09-25T01:05:45.564Z,42.95
2022-09-25T01:09:47.407Z,37.42
2022-09-25T01:13:49.564Z,38.63
2022-09-25T01:18:05.937Z,37.10
2022-09-25T01:22:22.178Z,39.20
2022-09-25T01:26:42.405Z,39.85
2022-09-25T01:30:48.256Z,38.55
2022-09-25T01:34:59.763Z,37.03
2022-09-25T01:39:07.755Z,39.25
2022-09-25T01:43:34.713Z,40.53
2022-09-25T01:47:38.653Z,36.83
2022-09-25T01:51:51.881Z,38.55
2022-09-25T01:56:02.569Z,42.63
2022-09-25T02:00:07.597Z,47.90
2022-09-25T02:04:29.559Z,45.47
2022-09-25T02:08:39.588Z,42.35
2022-09-25T02:12:47.969Z,44.63
2022-09-25T02:16:56.347Z,46.42
2022-09-25T02:21:14.118Z,52.05
2022-09-25T02:25:25.496Z,53.70
2022-09-25T02:29:29.684Z,56.13
2022-09-25T02:33:31.665Z,49.92
2022-09-25T02:37:33.364Z,46.47
2022-09-25T02:42:03.482Z,43.83
2022-09-25T02:46:10.683Z,44.08
2022-09-25T02:50:42.264Z,48.23
2022-09-25T02:55:02.602Z,49.38
2022-09-25T02:59:09.555Z,44.80
2022-09-25T03:03:15.006Z,47.67
2022-09-25T03:07:18.592Z,46.75
2022-09-25T03:11:23.656Z,40.75
2022-09-25T03:15:26.113Z,42.97
2022-09-25T03:19:30.886Z,44.22
2022-09-25T03:23:32.939Z,39.13
2022-09-25T03:27:34.864Z,41.70
2022-09-25T03:31:36.681Z,39.72
2022-09-25T03:35:39.875Z,38.15
2022-09-25T03:39:41.814Z,39.97
2022-09-25T03:43:43.850Z,39.25
2022-09-25T03:47:45.692Z,33.05
2022-09-25T03:51:47.574Z,36.33
2022-09-25T03:55:49.562Z,35.50
2022-09-25T03:59:51.738Z,35.35
2022-09-25T04:03:54.208Z,35.67
2022-09-25T04:07:55.897Z,37.10
2022-09-25T04:11:57.908Z,41.15
2022-09-25T04:16:01.591Z,37.30
2022-09-25T04:20:03.715Z,36.58
2022-09-25T04:24:23.883Z,35.63
2022-09-25T04:28:26.569Z,35.60
2022-09-25T04:32:46.667Z,35.78
2022-09-25T04:36:48.548Z,33.80
2022-09-25T04:40:50.730Z,36.83
2022-09-25T04:44:54.154Z,37.70
2022-09-25T04:48:55.768Z,38.00
2022-09-25T04:52:58.311Z,34.97
2022-09-25T04:56:59.962Z,35.17
2022-09-25T05:01:08.314Z,38.53
2022-09-25T05:05:11.413Z,39.63
2022-09-25T05:09:13.250Z,37.40
2022-09-25T05:13:14.853Z,38.38
2022-09-25T05:17:16.912Z,35.13
2022-09-25T05:21:18.578Z,36.35
2022-09-25T05:25:23.449Z,34.40
2022-09-25T05:29:25.429Z,36.78
2022-09-25T05:33:27.241Z,36.35
2022-09-25T05:37:28.906Z,32.45
2022-09-25T05:41:32.048Z,36.13
2022-09-25T05:45:35.674Z,32.35
2022-09-25T05:49:37.437Z,34.45
2022-09-25T05:53:39.354Z,34.70
2022-09-25T05:57:41.246Z,34.10
2022-09-25T06:01:42.924Z,33.20
2022-09-25T06:05:46.024Z,34.92
2022-09-25T06:09:47.736Z,32.22
2022-09-25T06:13:54.291Z,36.63
2022-09-25T06:17:56.875Z,33.15
2022-09-25T06:21:58.764Z,36.05
2022-09-25T06:26:02.335Z,33.33
2022-09-25T06:30:05.072Z,34.30
2022-09-25T06:34:06.846Z,31.50
2022-09-25T06:38:09.302Z,28.58
2022-09-25T06:42:11.043Z,30.50
2022-09-25T06:46:12.883Z,30.20
2022-09-25T06:50:15.101Z,25.65
2022-09-25T06:54:17.683Z,27.05
2022-09-25T06:58:22.322Z,23.98
2022-09-25T07:02:42.922Z,24.02
2022-09-25T07:06:45.490Z,24.67
2022-09-25T07:10:49.339Z,25.52
2022-09-25T07:14:50.970Z,24.38
2022-09-25T07:18:54.657Z,25.85
2022-09-25T07:23:03.970Z,25.40
2022-09-25T07:27:05.916Z,23.38
2022-09-25T07:31:17.515Z,22.85
2022-09-25T07:35:19.907Z,20.73
2022-09-25T07:39:21.507Z,21.85
2022-09-25T07:43:23.596Z,23.27
2022-09-25T07:47:25.287Z,21.00
2022-09-25T07:51:27.114Z,20.15
2022-09-25T07:55:29.268Z,20.63
2022-09-25T07:59:31.103Z,20.27
2022-09-25T08:03:32.945Z,18.77
2022-09-25T08:07:34.857Z,20.13
2022-09-25T08:11:36.807Z,21.42
2022-09-25T08:15:38.770Z,18.38
2022-09-25T08:19:40.616Z,19.40
2022-09-25T08:23:47.693Z,20.27
2022-09-25T08:27:49.840Z,20.35
2022-09-25T08:31:51.792Z,21.85
2022-09-25T08:35:58.363Z,23.38
2022-09-25T08:40:00.860Z,22.77
2022-09-25T08:44:28.129Z,21.08
2022-09-25T08:48:53.668Z,21.88
2022-09-25T08:53:07.350Z,22.27
2022-09-25T08:57:29.462Z,21.25
2022-09-25T09:01:49.809Z,21.75
2022-09-25T09:06:06.995Z,21.13
2022-09-25T09:10:23.586Z,21.50
2022-09-25T09:14:30.885Z,20.52
2022-09-25T09:18:37.768Z,18.85
2022-09-25T09:22:45.378Z,15.02
2022-09-25T09:27:19.382Z,14.98
2022-09-25T09:31:33.826Z,12.48
2022-09-25T09:35:53.654Z,12.00
2022-09-25T09:40:20.545Z,11.27
2022-09-25T09:44:28.584Z,9.80
2022-09-25T09:48:59.508Z,9.80
2022-09-25T09:53:05.800Z,9.00
2022-09-25T09:57:26.885Z,9.18
2022-09-25T10:01:42.931Z,8.55
2022-09-25T10:05:49.963Z,8.15
2022-09-25T10:09:54.260Z,8.48
2022-09-25T10:14:00.065Z,7.22
2022-09-25T10:18:03.593Z,7.40
2022-09-25T10:22:16.879Z,7.60
2022-09-25T10:26:33.251Z,7.78
2022-09-25T10:30:35.192Z,9.70
2022-09-25T10:34:37.022Z,7.28
2022-09-25T10:38:53.478Z,8.25
2022-09-25T10:43:18.671Z,7.50
2022-09-25T10:47:39.171Z,6.70
2022-09-25T10:52:01.857Z,7.30
2022-09-25T10:56:06.945Z,7.10
2022-09-25T11:00:24.217Z,5.63
2022-09-25T11:04:32.449Z,5.80
2022-09-25T11:08:38.897Z,5.68
2022-09-25T11:12:45.264Z,8.63
2022-09-25T11:16:57.943Z,6.53
2022-09-25T11:21:04.639Z,8.40
2022-09-25T11:25:17.515Z,9.45
2022-09-25T11:29:41.106Z,6.97
2022-09-25T11:33:56.232Z,6.57
2022-09-25T11:38:17.129Z,7.38
2022-09-25T11:42:35.559Z,7.82
2022-09-25T11:46:46.899Z,7.03
2022-09-25T11:51:01.682Z,9.55
2022-09-25T11:55:23.071Z,7.22
2022-09-25T11:59:39.559Z,8.77
2022-09-25T12:04:20.301Z,7.43
2022-09-25T12:08:49.017Z,7.03
2022-09-25T12:13:15.177Z,7.22
2022-09-25T12:17:36.057Z,7.47
2022-09-25T12:22:05.488Z,6.60
2022-09-25T12:26:25.918Z,5.57
2022-09-25T12:30:38.824Z,6.13
2022-09-25T12:34:55.749Z,5.63
2022-09-25T12:39:08.808Z,6.25
2022-09-25T12:43:33.514Z,5.10
2022-09-25T12:47:46.576Z,6.25
2022-09-25T12:51:51.333Z,5.65
2022-09-25T12:55:59.715Z,5.55
2022-09-25T13:00:25.761Z,5.32
2022-09-25T13:05:02.315Z,5.05
2022-09-25T13:09:18.354Z,5.47
2022-09-25T13:13:24.804Z,5.25
2022-09-25T13:17:26.642Z,5.85
2022-09-25T13:21:35.761Z,5.25
2022-09-25T13:25:47.512Z,5.18
2022-09-25T13:29:57.013Z,5.65
2022-09-25T13:34:01.661Z,5.30
2022-09-25T13:38:36.008Z,6.90
2022-09-25T13:42:42.231Z,6.70
2022-09-25T13:46:44.052Z,6.82
2022-09-25T13:50:47.160Z,6.78
2022-09-25T13:54:49.064Z,6.75
2022-09-25T13:59:13.864Z,6.38
2022-09-25T14:03:44.151Z,6.65
2022-09-25T14:07:49.617Z,6.65
2022-09-25T14:12:04.077Z,6.18
2022-09-25T14:16:10.216Z,8.65
2022-09-25T14:20:32.420Z,6.88
2022-09-25T14:24:35.506Z,6.25
2022-09-25T14:28:47.671Z,9.38
2022-09-25T14:33:25.880Z,9.70
2022-09-25T14:37:52.543Z,7.78
2022-09-25T14:42:18.734Z,6.93
2022-09-25T14:46:22.419Z,6.20
2022-09-25T14:50:27.136Z,6.43
2022-09-25T14:54:35.946Z,5.85
2022-09-25T14:58:42.513Z,5.68
2022-09-25T15:02:46.802Z,6.20
2022-09-25T15:06:59.491Z,7.82
2022-09-25T15:11:12.249Z,7.03
2022-09-25T15:15:14.276Z,11.40
2022-09-25T15:19:22.762Z,11.25
2022-09-25T15:23:24.691Z,10.18
2022-09-25T15:27:28.402Z,9.88
2022-09-25T15:31:37.408Z,11.55
2022-09-25T15:35:39.489Z,11.60
2022-09-25T15:39:42.718Z,11.07
2022-09-25T15:43:44.862Z,11.02
2022-09-25T15:47:46.478Z,10.60
2022-09-25T15:51:58.248Z,11.05
2022-09-25T15:56:22.806Z,11.05
2022-09-25T16:00:44.902Z,10.10
2022-09-25T16:04:51.939Z,10.43
2022-09-25T16:09:09.159Z,11.75
2022-09-25T16:13:22.754Z,13.00
2022-09-25T16:17:29.439Z,12.73
2022-09-25T16:21:33.929Z,14.32
2022-09-25T16:25:42.498Z,14.70
2022-09-25T16:29:44.965Z,16.17
2022-09-25T16:33:50.701Z,17.52
2022-09-25T16:37:53.164Z,17.23
2022-09-25T16:41:55.820Z,19.13
2022-09-25T16:46:00.534Z,21.65
2022-09-25T16:50:02.722Z,17.13
2022-09-25T16:54:09.981Z,18.45
2022-09-25T16:58:12.431Z,22.75
2022-09-25T17:02:37.045Z,22.17
2022-09-25T17:06:40.927Z,20.77
2022-09-25T17:10:42.838Z,20.42
2022-09-25T17:14:44.842Z,18.40
2022-09-25T17:18:46.548Z,19.40
2022-09-25T17:22:49.267Z,21.15
2022-09-25T17:26:54.266Z,23.02
2022-09-25T17:30:56.226Z,23.88
2022-09-25T17:35:00.626Z,23.88
2022-09-25T17:39:02.485Z,24.95
2022-09-25T17:43:04.246Z,24.92
2022-09-25T17:47:06.379Z,24.02
2022-09-25T17:51:16.306Z,26.40
2022-09-25T17:55:20.509Z,28.00
2022-09-25T17:59:22.294Z,34.08
2022-09-25T18:03:24.203Z,36.53
2022-09-25T18:07:29.912Z,49.97
2022-09-25T18:11:34.672Z,62.83
2022-09-25T18:15:42.123Z,63.15
2022-09-25T18:20:02.770Z,54.88
2022-09-25T18:24:04.706Z,43.17
2022-09-25T18:28:07.133Z,39.03
2022-09-25T18:32:08.779Z,39.95
2022-09-25T18:36:10.871Z,43.63
2022-09-25T18:40:14.632Z,44.45
2022-09-25T18:44:17.900Z,40.22
2022-09-25T18:48:19.952Z,39.95
2022-09-25T18:52:21.919Z,38.03
2022-09-25T18:56:23.679Z,34.40
2022-09-25T19:00:26.786Z,34.15
2022-09-25T19:04:28.753Z,35.65
2022-09-25T19:08:31.297Z,42.15
2022-09-25T19:12:33.607Z,45.20
2022-09-25T19:16:38.254Z,42.38
2022-09-25T19:20:54.505Z,45.15
2022-09-25T19:24:56.797Z,40.58
2022-09-25T19:29:00.275Z,41.30
2022-09-25T19:33:02.312Z,42.30
2022-09-25T19:37:04.532Z,43.70
2022-09-25T19:41:15.689Z,45.10
2022-09-25T19:45:18.635Z,41.33
2022-09-25T19:49:20.756Z,46.63
2022-09-25T19:53:22.612Z,48.88
2022-09-25T19:57:24.523Z,66.60
2022-09-25T20:01:30.161Z,62.22
2022-09-25T20:05:41.262Z,51.83
2022-09-25T20:09:44.516Z,47.17
2022-09-25T20:13:48.802Z,46.78
2022-09-25T20:17:50.522Z,42.50
2022-09-25T20:21:53.029Z,37.65
2022-09-25T20:25:55.240Z,38.88
2022-09-25T20:29:57.103Z,36.80
2022-09-25T20:33:58.831Z,35.00
2022-09-25T20:38:00.749Z,38.38
2022-09-25T20:42:02.411Z,38.47
2022-09-25T20:46:09.794Z,36.50
2022-09-25T20:50:11.542Z,34.65
2022-09-25T20:54:13.717Z,39.28
2022-09-25T20:58:15.625Z,37.90
2022-09-25T21:02:17.721Z,38.45
2022-09-25T21:06:22.883Z,38.40
2022-09-25T21:10:24.756Z,36.15
2022-09-25T21:14:28.478Z,36.72
2022-09-25T21:18:31.735Z,37.13
2022-09-25T21:22:33.434Z,39.13
2022-09-25T21:26:35.455Z,41.72
2022-09-25T21:30:38.608Z,43.10
2022-09-25T21:34:40.528Z,39.47
2022-09-25T21:38:43.358Z,43.22
2022-09-25T21:42:45.166Z,49.58
2022-09-25T21:46:47.070Z,42.20
2022-09-25T21:50:53.983Z,46.20
2022-09-25T21:54:55.624Z,50.92
2022-09-25T21:58:58.592Z,42.20
2022-09-25T22:03:00.305Z,47.10
2022-09-25T22:07:02.477Z,47.17
2022-09-25T22:11:05.949Z,47.20
2022-09-25T22:15:09.358Z,49.22
2022-09-25T22:19:30.077Z,51.10
2022-09-25T22:23:32.038Z,52.80
2022-09-25T22:27:34.297Z,47.53
2022-09-25T22:31:38.587Z,50.67
2022-09-25T22:35:40.318Z,54.65
2022-09-25T22:39:42.390Z,53.78
2022-09-25T22:43:44.332Z,48.70
2022-09-25T22:47:46.148Z,53.97
2022-09-25T22:51:48.309Z,59.38
2022-09-25T22:55:50.693Z,51.97
2022-09-25T22:59:52.366Z,57.05
2022-09-25T23:03:59.067Z,47.35
2022-09-25T23:08:00.853Z,47.25
2022-09-25T23:12:03.102Z,55.42
2022-09-25T23:16:07.805Z,52.13
2022-09-25T23:20:09.824Z,51.67
2022-09-25T23:24:14.293Z,44.20
2022-09-25T23:28:16.405Z,52.05
2022-09-25T23:32:20.010Z,52.35
2022-09-25T23:36:24.862Z,53.95
2022-09-25T23:40:26.663Z,44.05
2022-09-25T23:44:28.479Z,53.88
2022-09-25T23:48:30.131Z,45.22
2022-09-25T23:52:32.065Z,54.13
2022-09-25T23:56:35.314Z,48.17
